Estación Meteorológica Peña el Pijo (Robertgarden) [ 05/26/19 18:45:00 CEST ]

Fecha Hora Presion(HPa) Temp (°C) Humedad % Rocio (°C) Viento ( m/s) Direccion Lluvia 1Hora(mm) Lluvia 24H(mm) LLuvia Total(mm)
2019-Jan-01 01:01:39 1019.200 -0.4 64 -6.4         161.09
2019-Jan-01 02:10:06 1018.800 -0.9 65 -6.7         161.09
2019-Jan-01 03:01:53 1018.900 -1.5 67 -6.8         161.09
2019-Jan-01 04:02:11 1018.900 -1.2 67 -6.6         161.09
2019-Jan-01 05:02:18 1018.500 -1.5 66 -7.1         161.09
2019-Jan-01 06:02:10 1018.200 -1.6 66 -7.1         161.09
2019-Jan-01 07:01:42 1018.300 -1.7 66 -7.2         161.09
2019-Jan-01 08:01:38 1018.700 -1.7 64 -7.6         161.09
2019-Jan-01 09:01:39 1019.300 -1.6 64 -7.5         161.09
2019-Jan-01 10:01:38 1019.700 3.2 58 -4.3         161.09
2019-Jan-01 11:01:44 1019.500 10.8 39 -2.6         161.09
2019-Jan-01 12:01:29 1018.900 16.0 30 -1.6         161.09
2019-Jan-01 13:01:43 1018.100 17.9 20 -5.4         161.09
2019-Jan-01 14:01:45 1017.600 19.8 19 -4.7 0.5 NW     161.09
2019-Jan-01 15:01:37 1017.200 20.3 18 -5.1 1.8 ENE     161.09
2019-Jan-01 16:01:42 1017.400 19.1 18 -6.2         161.09
2019-Jan-01 17:01:32 1017.700 15.3 21 -7.0         161.09
2019-Jan-01 18:01:55 1018.300 10.5 31 -6.0         161.09
2019-Jan-01 19:01:50 1018.800 7.4 37 -6.4         161.09
2019-Jan-01 20:01:40 1019.200 5.0 43 -6.6         161.09
2019-Jan-01 21:01:43 1019.100 4.1 46 -6.6         161.09
2019-Jan-01 22:01:45 1018.900 2.6 49 -7.1         161.09
2019-Jan-01 23:01:44 1018.700 0.4 54 -7.9         161.09

Temperatura Máxima:20°    Temperatura Mínima:-1°
Presión Máxima:1019.700 Hpa    Presión Mínima:1017.200 Hpa


Volver